createdAt,value
2023-05-10T00:00:08.299Z,100535.27
2023-05-10T00:03:01.403Z,100534.05
2023-05-10T00:05:29.571Z,100531.61
2023-05-10T00:07:57.811Z,100528.30
2023-05-10T00:10:25.525Z,100528.50
2023-05-10T00:12:53.455Z,100526.73
2023-05-10T00:15:21.396Z,100526.30
2023-05-10T00:17:49.388Z,100526.91
2023-05-10T00:20:17.647Z,100526.95
2023-05-10T00:22:46.010Z,100523.95
2023-05-10T00:25:13.929Z,100521.11
2023-05-10T00:27:46.637Z,100519.41
2023-05-10T00:30:14.784Z,100515.05
2023-05-10T00:32:44.384Z,100515.60
2023-05-10T00:35:12.329Z,100518.78
2023-05-10T00:37:40.158Z,100519.04
2023-05-10T00:40:08.546Z,100513.15
2023-05-10T00:42:36.582Z,100511.46
2023-05-10T00:45:05.393Z,100514.30
2023-05-10T00:47:34.247Z,100514.61
2023-05-10T00:50:02.831Z,100510.84
2023-05-10T00:52:31.608Z,100513.02
2023-05-10T00:55:01.231Z,100513.11
2023-05-10T00:57:29.514Z,100517.45
2023-05-10T00:59:58.929Z,100517.64
2023-05-10T01:02:26.940Z,100516.46
2023-05-10T01:04:56.099Z,100511.20
2023-05-10T01:07:25.008Z,100511.98
2023-05-10T01:09:52.928Z,100514.81
2023-05-10T01:12:21.183Z,100512.83
2023-05-10T01:14:50.378Z,100511.45
2023-05-10T01:17:18.765Z,100511.79
2023-05-10T01:19:46.684Z,100508.41
2023-05-10T01:22:56.886Z,100508.88
2023-05-10T01:25:39.955Z,100507.07
2023-05-10T01:28:45.787Z,100505.20
2023-05-10T01:31:29.841Z,100501.16
2023-05-10T01:34:02.320Z,100496.02
2023-05-10T01:36:36.329Z,100497.56
2023-05-10T01:39:22.348Z,100499.23
2023-05-10T01:42:11.565Z,100497.70
2023-05-10T01:45:03.452Z,100494.52
2023-05-10T01:47:46.000Z,100493.54
2023-05-10T01:50:20.139Z,100494.17
2023-05-10T01:53:00.169Z,100492.14
2023-05-10T01:55:36.269Z,100488.76
2023-05-10T01:58:09.068Z,100489.84
2023-05-10T02:00:40.949Z,100487.48
2023-05-10T02:03:11.417Z,100484.15
2023-05-10T02:05:42.331Z,100478.29
2023-05-10T02:08:11.168Z,100475.70
2023-05-10T02:10:41.382Z,100474.12
2023-05-10T02:13:11.177Z,100468.77
2023-05-10T02:15:41.099Z,100472.86
2023-05-10T02:18:11.840Z,100476.13
2023-05-10T02:20:40.688Z,100474.02
2023-05-10T02:23:10.818Z,100471.09
2023-05-10T02:25:40.069Z,100470.34
2023-05-10T02:28:11.545Z,100470.27
2023-05-10T02:30:40.368Z,100469.84
2023-05-10T02:33:09.371Z,100473.86
2023-05-10T02:35:39.392Z,100474.64
2023-05-10T02:38:08.536Z,100477.63
2023-05-10T02:40:38.221Z,100475.75
2023-05-10T02:43:10.385Z,100476.03
2023-05-10T02:45:40.698Z,100477.14
2023-05-10T02:48:08.750Z,100479.85
2023-05-10T02:50:38.165Z,100477.36
2023-05-10T02:53:16.480Z,100480.11
2023-05-10T02:55:49.757Z,100478.02
2023-05-10T02:58:20.315Z,100475.67
2023-05-10T03:00:48.213Z,100476.45
2023-05-10T03:03:16.081Z,100476.27
2023-05-10T03:05:43.994Z,100475.27
2023-05-10T03:08:12.353Z,100476.23
2023-05-10T03:10:55.616Z,100473.05
2023-05-10T03:13:40.981Z,100473.77
2023-05-10T03:16:23.122Z,100471.20
2023-05-10T03:19:12.137Z,100471.69
2023-05-10T03:21:46.225Z,100471.41
2023-05-10T03:24:16.666Z,100472.20
2023-05-10T03:26:46.739Z,100474.50
2023-05-10T03:29:18.682Z,100473.80
2023-05-10T03:31:47.030Z,100474.82
2023-05-10T03:34:15.728Z,100476.83
2023-05-10T03:36:43.681Z,100473.67
2023-05-10T03:39:11.707Z,100473.23
2023-05-10T03:41:39.882Z,100469.23
2023-05-10T03:44:07.794Z,100466.66
2023-05-10T03:46:35.793Z,100466.68
2023-05-10T03:49:04.485Z,100465.34
2023-05-10T03:51:32.839Z,100464.98
2023-05-10T03:54:00.965Z,100465.65
2023-05-10T03:56:29.430Z,100462.90
2023-05-10T03:58:57.572Z,100462.37
2023-05-10T04:01:25.484Z,100462.64
2023-05-10T04:03:53.510Z,100463.20
2023-05-10T04:06:21.484Z,100461.45
2023-05-10T04:08:49.345Z,100463.73
2023-05-10T04:11:17.405Z,100459.81
2023-05-10T04:13:47.376Z,100462.96
2023-05-10T04:16:16.693Z,100459.95
2023-05-10T04:18:44.503Z,100461.21
2023-05-10T04:21:14.589Z,100460.40
2023-05-10T04:23:42.472Z,100458.89
2023-05-10T04:26:10.339Z,100461.42
2023-05-10T04:28:38.942Z,100464.66
2023-05-10T04:31:09.065Z,100463.46
2023-05-10T04:33:38.081Z,100465.11
2023-05-10T04:36:06.672Z,100464.88
2023-05-10T04:38:34.450Z,100465.25
2023-05-10T04:41:10.038Z,100461.48
2023-05-10T04:43:39.346Z,100457.80
2023-05-10T04:46:08.450Z,100458.88
2023-05-10T04:48:36.655Z,100458.95
2023-05-10T04:51:05.195Z,100455.64
2023-05-10T04:53:33.496Z,100458.65
2023-05-10T04:56:01.276Z,100457.72
2023-05-10T04:58:29.231Z,100458.45
2023-05-10T05:00:57.051Z,100457.55
2023-05-10T05:03:24.969Z,100458.17
2023-05-10T05:05:52.953Z,100454.44
2023-05-10T05:08:20.808Z,100450.89
2023-05-10T05:10:51.279Z,100450.85
2023-05-10T05:13:19.590Z,100450.99
2023-05-10T05:15:47.680Z,100451.65
2023-05-10T05:18:15.666Z,100450.99
2023-05-10T05:20:43.485Z,100448.75
2023-05-10T05:23:11.399Z,100445.63
2023-05-10T05:25:39.657Z,100446.42
2023-05-10T05:28:07.522Z,100445.17
2023-05-10T05:30:35.478Z,100446.20
2023-05-10T05:33:03.449Z,100446.02
2023-05-10T05:35:31.310Z,100445.80
2023-05-10T05:37:59.194Z,100447.05
2023-05-10T05:40:26.971Z,100446.73
2023-05-10T05:42:54.920Z,100445.94
2023-05-10T05:45:25.221Z,100452.36
2023-05-10T05:47:53.520Z,100453.91
2023-05-10T05:50:21.387Z,100455.88
2023-05-10T05:52:49.173Z,100459.02
2023-05-10T05:55:17.350Z,100458.72
2023-05-10T05:57:45.429Z,100460.19
2023-05-10T06:00:14.177Z,100461.98
2023-05-10T06:02:42.061Z,100461.06
2023-05-10T06:05:10.269Z,100458.27
2023-05-10T06:07:38.193Z,100455.91
2023-05-10T06:10:07.084Z,100456.21
2023-05-10T06:12:35.645Z,100456.16
2023-05-10T06:15:04.981Z,100453.73
2023-05-10T06:17:33.390Z,100451.27
2023-05-10T06:20:01.218Z,100453.99
2023-05-10T06:22:29.120Z,100455.33
2023-05-10T06:24:57.038Z,100454.24
2023-05-10T06:27:25.480Z,100453.55
2023-05-10T06:30:02.102Z,100455.92
2023-05-10T06:32:37.496Z,100451.46
2023-05-10T06:35:05.658Z,100448.70
2023-05-10T06:37:33.353Z,100447.74
2023-05-10T06:40:01.590Z,100450.56
2023-05-10T06:42:29.600Z,100453.83
2023-05-10T06:44:57.410Z,100455.92
2023-05-10T06:47:25.300Z,100453.59
2023-05-10T06:49:53.197Z,100453.13
2023-05-10T06:52:21.105Z,100452.23
2023-05-10T06:54:49.312Z,100446.38
2023-05-10T06:57:30.422Z,100444.48
2023-05-10T07:00:00.139Z,100443.74
2023-05-10T07:02:28.373Z,100441.20
2023-05-10T07:04:57.986Z,100441.89
2023-05-10T07:07:27.552Z,100440.25
2023-05-10T07:09:55.761Z,100436.19
2023-05-10T07:12:23.704Z,100438.71
2023-05-10T07:14:51.606Z,100437.92
2023-05-10T07:17:19.648Z,100435.06
2023-05-10T07:19:47.615Z,100433.73
2023-05-10T07:22:18.565Z,100433.38
2023-05-10T07:24:46.629Z,100432.15
2023-05-10T07:27:14.617Z,100435.83
2023-05-10T07:29:42.463Z,100435.37
2023-05-10T07:32:10.417Z,100433.86
2023-05-10T07:34:38.240Z,100434.76
2023-05-10T07:37:07.331Z,100434.30
2023-05-10T07:39:35.177Z,100435.84
2023-05-10T07:42:03.853Z,100435.95
2023-05-10T07:44:31.730Z,100439.91
2023-05-10T07:46:59.494Z,100439.61
2023-05-10T07:49:27.439Z,100439.90
2023-05-10T07:51:55.412Z,100441.05
2023-05-10T07:54:23.268Z,100443.48
2023-05-10T07:56:52.318Z,100444.69
2023-05-10T07:59:20.950Z,100445.36
2023-05-10T08:01:48.954Z,100444.00
2023-05-10T08:04:17.164Z,100441.92
2023-05-10T08:06:45.080Z,100440.17
2023-05-10T08:09:12.989Z,100437.61
2023-05-10T08:11:41.171Z,100438.14
2023-05-10T08:14:09.158Z,100435.05
2023-05-10T08:16:37.049Z,100437.14
2023-05-10T08:19:05.656Z,100432.46
2023-05-10T08:21:34.573Z,100430.52
2023-05-10T08:24:02.751Z,100435.23
2023-05-10T08:26:30.791Z,100431.69
2023-05-10T08:28:58.847Z,100430.52
2023-05-10T08:31:26.755Z,100428.64
2023-05-10T08:33:54.666Z,100426.71
2023-05-10T08:36:25.191Z,100427.80
2023-05-10T08:38:53.249Z,100422.89
2023-05-10T08:41:30.666Z,100424.13
2023-05-10T08:43:59.298Z,100425.33
2023-05-10T08:46:28.634Z,100424.66
2023-05-10T08:48:57.942Z,100424.91
2023-05-10T08:51:28.123Z,100421.61
2023-05-10T08:53:56.458Z,100424.35
2023-05-10T08:56:25.221Z,100422.52
2023-05-10T08:58:53.509Z,100422.33
2023-05-10T09:01:22.629Z,100416.86
2023-05-10T09:03:51.808Z,100413.98
2023-05-10T09:06:19.807Z,100409.91
2023-05-10T09:08:48.793Z,100410.14
2023-05-10T09:11:17.346Z,100410.86
2023-05-10T09:13:45.703Z,100410.25
2023-05-10T09:16:21.376Z,100407.70
2023-05-10T09:18:50.903Z,100403.71
2023-05-10T09:21:21.645Z,100398.20
2023-05-10T09:23:51.218Z,100393.31
2023-05-10T09:26:23.940Z,100392.87
2023-05-10T09:28:54.537Z,100394.03
2023-05-10T09:31:22.632Z,100387.68
2023-05-10T09:33:51.894Z,100386.15
2023-05-10T09:36:19.751Z,100384.64
2023-05-10T09:38:52.920Z,100383.77
2023-05-10T09:41:23.315Z,100379.30
2023-05-10T09:43:51.535Z,100372.67
2023-05-10T09:46:19.691Z,100371.60
2023-05-10T09:48:48.762Z,100373.47
2023-05-10T09:51:21.668Z,100368.43
2023-05-10T09:53:51.650Z,100365.75
2023-05-10T09:56:36.048Z,100368.90
2023-05-10T09:59:04.571Z,100369.58
2023-05-10T10:01:32.612Z,100367.86
2023-05-10T10:04:06.702Z,100363.22
2023-05-10T10:06:38.986Z,100358.85
2023-05-10T10:09:08.515Z,100356.84
2023-05-10T10:11:38.174Z,100352.11
2023-05-10T10:14:07.056Z,100349.66
2023-05-10T10:16:35.022Z,100343.22
2023-05-10T10:19:03.153Z,100337.95
2023-05-10T10:21:32.065Z,100335.73
2023-05-10T10:24:00.044Z,100331.93
2023-05-10T10:26:28.531Z,100329.84
2023-05-10T10:29:24.862Z,100324.17
2023-05-10T10:32:28.424Z,100324.05
2023-05-10T10:34:57.363Z,100321.46
2023-05-10T10:37:42.257Z,100320.16
2023-05-10T10:40:30.519Z,100320.25
2023-05-10T10:43:22.816Z,100315.09
2023-05-10T10:46:11.011Z,100311.54
2023-05-10T10:48:38.976Z,100308.91
2023-05-10T10:51:07.146Z,100307.80
2023-05-10T10:53:35.075Z,100305.21
2023-05-10T10:56:16.392Z,100305.23
2023-05-10T10:58:54.737Z,100301.31
2023-05-10T11:01:22.961Z,100298.57
2023-05-10T11:04:00.302Z,100298.15
2023-05-10T11:06:36.527Z,100301.11
2023-05-10T11:09:13.772Z,100295.74
2023-05-10T11:11:59.600Z,100295.25
2023-05-10T11:14:28.012Z,100292.98
2023-05-10T11:16:55.919Z,100290.80
2023-05-10T11:19:28.770Z,100288.33
2023-05-10T11:22:05.790Z,100284.81
2023-05-10T11:24:34.822Z,100281.44
2023-05-10T11:27:03.146Z,100279.17
2023-05-10T11:29:31.280Z,100277.98
2023-05-10T11:32:00.672Z,100282.88
2023-05-10T11:34:31.431Z,100282.56
2023-05-10T11:36:59.530Z,100279.50
2023-05-10T11:39:32.056Z,100279.93
2023-05-10T11:42:00.330Z,100277.52
2023-05-10T11:44:35.417Z,100278.09
2023-05-10T11:47:04.196Z,100272.41
2023-05-10T11:49:32.407Z,100265.73
2023-05-10T11:52:11.992Z,100265.55
2023-05-10T11:54:51.848Z,100264.71
2023-05-10T11:57:23.729Z,100266.38
2023-05-10T11:59:56.101Z,100263.26
2023-05-10T12:02:24.347Z,100260.62
2023-05-10T12:04:53.083Z,100259.86
2023-05-10T12:07:21.255Z,100259.59
2023-05-10T12:10:09.708Z,100264.05
2023-05-10T12:12:44.746Z,100266.05
2023-05-10T12:15:21.276Z,100265.34
2023-05-10T12:17:50.262Z,100266.45
2023-05-10T12:20:23.740Z,100262.81
2023-05-10T12:22:54.323Z,100258.76
2023-05-10T12:25:24.407Z,100256.21
2023-05-10T12:27:54.844Z,100253.14
2023-05-10T12:30:28.957Z,100256.56
2023-05-10T12:33:10.808Z,100252.60
2023-05-10T12:36:08.146Z,100248.09
2023-05-10T12:38:44.396Z,100250.36
2023-05-10T12:41:14.683Z,100246.15
2023-05-10T12:43:43.173Z,100245.33
2023-05-10T12:46:12.374Z,100244.14
2023-05-10T12:48:42.860Z,100244.05
2023-05-10T12:51:12.897Z,100244.45
2023-05-10T12:53:43.714Z,100241.94
2023-05-10T12:56:13.063Z,100239.61
2023-05-10T12:58:41.339Z,100235.73
2023-05-10T13:01:09.570Z,100237.81
2023-05-10T13:03:37.586Z,100237.61
2023-05-10T13:06:06.638Z,100232.11
2023-05-10T13:08:34.782Z,100237.11
2023-05-10T13:11:03.725Z,100233.39
2023-05-10T13:13:31.553Z,100230.43
2023-05-10T13:15:59.526Z,100227.55
2023-05-10T13:18:27.607Z,100223.81
2023-05-10T13:20:56.828Z,100221.80
2023-05-10T13:23:24.907Z,100220.10
2023-05-10T13:25:53.151Z,100217.43
2023-05-10T13:28:21.506Z,100213.68
2023-05-10T13:30:49.401Z,100213.31
2023-05-10T13:33:17.326Z,100210.23
2023-05-10T13:35:45.183Z,100207.30
2023-05-10T13:38:14.793Z,100205.05
2023-05-10T13:40:42.965Z,100205.18
2023-05-10T13:43:11.056Z,100200.30
2023-05-10T13:45:40.027Z,100200.48
2023-05-10T13:48:07.998Z,100197.83
2023-05-10T13:50:36.120Z,100197.12
2023-05-10T13:53:26.725Z,100196.33
2023-05-10T13:55:54.543Z,100194.84
2023-05-10T13:58:22.275Z,100193.96
2023-05-10T14:00:50.135Z,100188.68
2023-05-10T14:03:18.125Z,100184.60
2023-05-10T14:05:46.709Z,100187.30
2023-05-10T14:08:15.707Z,100187.31
2023-05-10T14:10:43.805Z,100182.10
2023-05-10T14:13:11.844Z,100177.36
2023-05-10T14:15:39.810Z,100171.04
2023-05-10T14:18:07.846Z,100173.34
2023-05-10T14:20:35.868Z,100172.56
2023-05-10T14:23:04.341Z,100170.64
2023-05-10T14:25:32.203Z,100169.67
2023-05-10T14:28:00.132Z,100165.33
2023-05-10T14:30:28.044Z,100166.66
2023-05-10T14:32:56.578Z,100161.36
2023-05-10T14:35:25.248Z,100160.69
2023-05-10T14:37:53.419Z,100160.89
2023-05-10T14:40:22.180Z,100163.13
2023-05-10T14:42:51.227Z,100158.45
2023-05-10T14:45:19.532Z,100157.69
2023-05-10T14:47:47.528Z,100158.36
2023-05-10T14:50:32.350Z,100161.00
2023-05-10T14:53:04.434Z,100161.23
2023-05-10T14:55:32.441Z,100161.10
2023-05-10T14:58:00.557Z,100163.21
2023-05-10T15:00:31.200Z,100164.09
2023-05-10T15:03:00.114Z,100155.02
2023-05-10T15:05:28.680Z,100155.70
2023-05-10T15:07:57.415Z,100153.80
2023-05-10T15:10:25.446Z,100152.68
2023-05-10T15:12:53.461Z,100149.96
2023-05-10T15:15:21.926Z,100149.64
2023-05-10T15:17:50.190Z,100145.90
2023-05-10T15:20:18.293Z,100145.23
2023-05-10T15:22:46.116Z,100149.05
2023-05-10T15:25:15.632Z,100148.33
2023-05-10T15:27:44.714Z,100146.34
2023-05-10T15:30:13.396Z,100143.96
2023-05-10T15:32:41.614Z,100145.23
2023-05-10T15:35:11.261Z,100144.44
2023-05-10T15:37:39.205Z,100138.63
2023-05-10T15:40:07.832Z,100135.96
2023-05-10T15:42:36.182Z,100138.11
2023-05-10T15:45:05.063Z,100138.09
2023-05-10T15:47:33.928Z,100136.96
2023-05-10T15:50:02.106Z,100135.69
2023-05-10T15:52:30.143Z,100132.54
2023-05-10T15:54:58.185Z,100131.91
2023-05-10T15:57:26.202Z,100134.18
2023-05-10T15:59:54.124Z,100135.96
2023-05-10T16:02:23.537Z,100137.11
2023-05-10T16:04:51.875Z,100137.36
2023-05-10T16:07:19.870Z,100133.73
2023-05-10T16:09:49.525Z,100133.38
2023-05-10T16:12:17.517Z,100132.69
2023-05-10T16:14:46.488Z,100130.80
2023-05-10T16:17:15.566Z,100135.24
2023-05-10T16:19:43.736Z,100130.08
2023-05-10T16:22:12.155Z,100130.77
2023-05-10T16:24:40.238Z,100128.55
2023-05-10T16:27:08.209Z,100130.96
2023-05-10T16:29:36.166Z,100129.19
2023-05-10T16:32:06.255Z,100132.73
2023-05-10T16:34:34.179Z,100131.80
2023-05-10T16:37:02.206Z,100136.02
2023-05-10T16:39:30.306Z,100139.15
2023-05-10T16:41:58.113Z,100140.68
2023-05-10T16:44:26.205Z,100141.89
2023-05-10T16:46:55.063Z,100142.52
2023-05-10T16:49:25.312Z,100141.61
2023-05-10T16:51:54.173Z,100139.48
2023-05-10T16:54:22.128Z,100139.47
2023-05-10T16:56:50.428Z,100142.45
2023-05-10T16:59:18.529Z,100142.13
2023-05-10T17:01:47.103Z,100141.33
2023-05-10T17:04:15.629Z,100144.48
2023-05-10T17:06:43.860Z,100148.04
2023-05-10T17:09:12.322Z,100145.52
2023-05-10T17:11:40.191Z,100145.48
2023-05-10T17:14:08.552Z,100146.52
2023-05-10T17:16:36.456Z,100148.27
2023-05-10T17:19:04.385Z,100148.77
2023-05-10T17:21:32.384Z,100154.20
2023-05-10T17:24:09.207Z,100151.89
2023-05-10T17:26:37.399Z,100151.25
2023-05-10T17:29:05.411Z,100149.54
2023-05-10T17:31:33.330Z,100153.83
2023-05-10T17:34:05.753Z,100154.86
2023-05-10T17:36:34.438Z,100158.32
2023-05-10T17:39:05.905Z,100158.20
2023-05-10T17:41:38.765Z,100157.74
2023-05-10T17:44:07.439Z,100155.70
2023-05-10T17:46:35.346Z,100157.92
2023-05-10T17:49:03.210Z,100161.58
2023-05-10T17:51:32.653Z,100164.26
2023-05-10T17:54:00.707Z,100164.06
2023-05-10T17:56:28.902Z,100166.52
2023-05-10T17:58:56.937Z,100170.03
2023-05-10T18:01:24.939Z,100169.20
2023-05-10T18:03:53.176Z,100171.77
2023-05-10T18:06:21.065Z,100179.86
2023-05-10T18:08:49.448Z,100180.98
2023-05-10T18:11:17.558Z,100188.57
2023-05-10T18:13:45.406Z,100190.96
2023-05-10T18:16:13.615Z,100193.20
2023-05-10T18:18:41.888Z,100195.50
2023-05-10T18:21:10.073Z,100198.45
2023-05-10T18:23:38.396Z,100205.06
2023-05-10T18:26:08.625Z,100206.89
2023-05-10T18:28:37.277Z,100210.36
2023-05-10T18:31:05.172Z,100217.52
2023-05-10T18:33:33.054Z,100218.39
2023-05-10T18:36:04.154Z,100221.80
2023-05-10T18:38:32.127Z,100223.39
2023-05-10T18:40:59.998Z,100227.41
2023-05-10T18:43:27.891Z,100230.41
2023-05-10T18:45:55.895Z,100231.92
2023-05-10T18:48:23.836Z,100235.14
2023-05-10T18:50:51.800Z,100237.97
2023-05-10T18:53:19.796Z,100238.91
2023-05-10T18:55:57.252Z,100241.31
2023-05-10T18:58:28.082Z,100239.60
2023-05-10T19:00:55.999Z,100239.34
2023-05-10T19:03:24.911Z,100240.79
2023-05-10T19:05:52.754Z,100243.04
2023-05-10T19:08:20.875Z,100244.63
2023-05-10T19:10:48.926Z,100246.92
2023-05-10T19:13:16.911Z,100245.25
2023-05-10T19:15:44.751Z,100246.70
2023-05-10T19:18:15.366Z,100251.44
2023-05-10T19:20:43.203Z,100254.80
2023-05-10T19:23:11.474Z,100254.95
2023-05-10T19:25:39.423Z,100256.61
2023-05-10T19:28:10.894Z,100259.36
2023-05-10T19:30:38.894Z,100258.52
2023-05-10T19:33:06.977Z,100260.02
2023-05-10T19:35:35.112Z,100262.85
2023-05-10T19:38:03.102Z,100263.81
2023-05-10T19:40:30.990Z,100259.77
2023-05-10T19:43:00.414Z,100259.38
2023-05-10T19:45:28.292Z,100262.67
2023-05-10T19:47:57.566Z,100263.08
2023-05-10T19:50:26.253Z,100260.75
2023-05-10T19:52:54.298Z,100259.84
2023-05-10T19:55:28.388Z,100256.59
2023-05-10T19:57:56.882Z,100254.72
2023-05-10T20:00:27.276Z,100257.84
2023-05-10T20:02:56.067Z,100260.42
2023-05-10T20:05:24.652Z,100265.13
2023-05-10T20:07:52.667Z,100265.35
2023-05-10T20:10:22.630Z,100268.14
2023-05-10T20:12:54.596Z,100268.09
2023-05-10T20:15:24.812Z,100273.90
2023-05-10T20:17:57.719Z,100275.32
2023-05-10T20:20:27.376Z,100280.86
2023-05-10T20:22:58.882Z,100283.30
2023-05-10T20:25:29.342Z,100282.80
2023-05-10T20:27:58.820Z,100285.75
2023-05-10T20:30:33.581Z,100288.31
2023-05-10T20:33:09.472Z,100286.91
2023-05-10T20:35:38.124Z,100286.13
2023-05-10T20:38:10.430Z,100289.51
2023-05-10T20:40:38.455Z,100292.94
2023-05-10T20:43:09.156Z,100292.72
2023-05-10T20:45:39.748Z,100294.61
2023-05-10T20:48:10.308Z,100293.13
2023-05-10T20:50:38.910Z,100297.10
2023-05-10T20:53:09.043Z,100299.98
2023-05-10T20:55:37.193Z,100300.52
2023-05-10T20:58:05.824Z,100302.93
2023-05-10T21:00:38.099Z,100303.10
2023-05-10T21:03:09.266Z,100302.75
2023-05-10T21:05:39.771Z,100302.40
2023-05-10T21:08:10.667Z,100306.17
2023-05-10T21:10:38.558Z,100305.46
2023-05-10T21:13:08.737Z,100304.19
2023-05-10T21:15:39.483Z,100303.63
2023-05-10T21:18:09.081Z,100304.33
2023-05-10T21:20:36.970Z,100304.70
2023-05-10T21:23:04.888Z,100310.30
2023-05-10T21:25:32.599Z,100309.17
2023-05-10T21:28:00.788Z,100311.96
2023-05-10T21:30:28.626Z,100312.35
2023-05-10T21:33:03.589Z,100311.02
2023-05-10T21:35:31.867Z,100310.50
2023-05-10T21:37:59.886Z,100309.84
2023-05-10T21:40:32.243Z,100312.36
2023-05-10T21:43:01.060Z,100312.35
2023-05-10T21:45:32.932Z,100312.51
2023-05-10T21:48:00.851Z,100311.81
2023-05-10T21:50:32.901Z,100315.12
2023-05-10T21:53:02.788Z,100310.06
2023-05-10T21:55:33.493Z,100317.90
2023-05-10T21:58:02.080Z,100320.53
2023-05-10T22:00:34.268Z,100320.59
2023-05-10T22:03:02.580Z,100328.77
2023-05-10T22:05:33.402Z,100327.60
2023-05-10T22:08:01.334Z,100326.73
2023-05-10T22:10:33.147Z,100324.83
2023-05-10T22:13:01.081Z,100324.20
2023-05-10T22:15:29.101Z,100325.11
2023-05-10T22:17:57.160Z,100323.63
2023-05-10T22:20:25.141Z,100323.60
2023-05-10T22:22:54.857Z,100322.00
2023-05-10T22:25:22.853Z,100322.80
2023-05-10T22:27:50.704Z,100323.29
2023-05-10T22:30:19.912Z,100326.14
2023-05-10T22:32:48.146Z,100327.36
2023-05-10T22:35:16.186Z,100331.58
2023-05-10T22:37:43.975Z,100331.02
2023-05-10T22:40:12.332Z,100328.45
2023-05-10T22:42:40.139Z,100325.81
2023-05-10T22:45:08.795Z,100329.52
2023-05-10T22:47:36.834Z,100329.41
2023-05-10T22:50:05.180Z,100328.04
2023-05-10T22:52:33.197Z,100328.39
2023-05-10T22:55:01.084Z,100329.50
2023-05-10T22:57:28.931Z,100327.34
2023-05-10T22:59:56.859Z,100328.21
2023-05-10T23:02:25.079Z,100328.67
2023-05-10T23:04:52.917Z,100329.02
2023-05-10T23:07:21.095Z,100327.40
2023-05-10T23:09:48.955Z,100328.36
2023-05-10T23:12:17.112Z,100324.21
2023-05-10T23:14:46.660Z,100320.27
2023-05-10T23:17:14.622Z,100322.16
2023-05-10T23:19:42.667Z,100324.89
2023-05-10T23:22:10.376Z,100323.10
2023-05-10T23:24:39.301Z,100320.77
2023-05-10T23:27:07.338Z,100322.14
2023-05-10T23:29:35.296Z,100319.85
2023-05-10T23:32:03.207Z,100317.73
2023-05-10T23:34:31.087Z,100320.60
2023-05-10T23:36:58.942Z,100319.58
2023-05-10T23:39:26.787Z,100322.05
2023-05-10T23:41:54.935Z,100317.83
2023-05-10T23:44:22.726Z,100316.58
2023-05-10T23:46:51.310Z,100315.71
2023-05-10T23:49:19.207Z,100314.57
2023-05-10T23:51:47.109Z,100314.08
2023-05-10T23:54:15.100Z,100313.66
2023-05-10T23:56:43.010Z,100313.45
2023-05-10T23:59:11.154Z,100315.40
